sensor_id;sensor_type;location;lat;lon;timestamp;P1;durP1;ratioP1;P2;durP2;ratioP2
17520;SDS011;8878;-33.370;-70.552;2023-04-03T00:01:40;7.88;;;2.97;;
17520;SDS011;8878;-33.370;-70.552;2023-04-03T00:04:10;9.00;;;3.20;;
17520;SDS011;8878;-33.370;-70.552;2023-04-03T00:06:39;2.70;;;2.20;;
17520;SDS011;8878;-33.370;-70.552;2023-04-03T00:09:09;7.10;;;2.70;;
17520;SDS011;8878;-33.370;-70.552;2023-04-03T00:11:38;4.75;;;2.20;;
17520;SDS011;8878;-33.370;-70.552;2023-04-03T00:14:07;3.55;;;2.22;;
17520;SDS011;8878;-33.370;-70.552;2023-04-03T00:16:38;6.45;;;3.90;;
17520;SDS011;8878;-33.370;-70.552;2023-04-03T00:19:08;2.95;;;2.45;;
17520;SDS011;8878;-33.370;-70.552;2023-04-03T00:21:37;2.75;;;2.17;;
17520;SDS011;8878;-33.370;-70.552;2023-04-03T00:24:07;2.90;;;1.70;;
17520;SDS011;8878;-33.370;-70.552;2023-04-03T00:26:36;4.00;;;1.98;;
17520;SDS011;8878;-33.370;-70.552;2023-04-03T00:29:05;3.67;;;2.08;;
17520;SDS011;8878;-33.370;-70.552;2023-04-03T00:31:34;6.28;;;2.17;;
17520;SDS011;8878;-33.370;-70.552;2023-04-03T00:34:05;2.63;;;1.90;;
17520;SDS011;8878;-33.370;-70.552;2023-04-03T00:36:35;2.10;;;1.88;;
17520;SDS011;8878;-33.370;-70.552;2023-04-03T00:39:04;5.70;;;2.00;;
17520;SDS011;8878;-33.370;-70.552;2023-04-03T00:41:34;3.58;;;2.15;;
17520;SDS011;8878;-33.370;-70.552;2023-04-03T00:44:18;7.00;;;1.88;;
17520;SDS011;8878;-33.370;-70.552;2023-04-03T00:47:11;2.67;;;1.65;;
17520;SDS011;8878;-33.370;-70.552;2023-04-03T00:49:43;1.42;;;1.23;;
17520;SDS011;8878;-33.370;-70.552;2023-04-03T00:52:14;4.30;;;1.52;;
17520;SDS011;8878;-33.370;-70.552;2023-04-03T00:54:47;2.22;;;1.13;;
17520;SDS011;8878;-33.370;-70.552;2023-04-03T00:57:19;7.35;;;2.28;;
17520;SDS011;8878;-33.370;-70.552;2023-04-03T00:59:50;6.72;;;1.55;;
17520;SDS011;8878;-33.370;-70.552;2023-04-03T01:02:23;3.30;;;1.73;;
17520;SDS011;8878;-33.370;-70.552;2023-04-03T01:04:54;1.23;;;1.13;;
17520;SDS011;8878;-33.370;-70.552;2023-04-03T01:07:24;3.30;;;1.20;;
17520;SDS011;8878;-33.370;-70.552;2023-04-03T01:09:57;1.65;;;1.35;;
17520;SDS011;8878;-33.370;-70.552;2023-04-03T01:12:28;7.15;;;1.42;;
17520;SDS011;8878;-33.370;-70.552;2023-04-03T01:15:00;4.85;;;1.33;;
17520;SDS011;8878;-33.370;-70.552;2023-04-03T01:17:32;0.85;;;0.85;;
17520;SDS011;8878;-33.370;-70.552;2023-04-03T01:20:14;0.90;;;0.77;;
17520;SDS011;8878;-33.370;-70.552;2023-04-03T01:23:08;2.58;;;1.20;;
17520;SDS011;8878;-33.370;-70.552;2023-04-03T01:25:54;3.47;;;1.75;;
17520;SDS011;8878;-33.370;-70.552;2023-04-03T01:28:29;2.60;;;1.45;;
17520;SDS011;8878;-33.370;-70.552;2023-04-03T01:31:02;1.50;;;1.40;;
17520;SDS011;8878;-33.370;-70.552;2023-04-03T01:33:40;3.33;;;1.33;;
17520;SDS011;8878;-33.370;-70.552;2023-04-03T01:36:10;8.63;;;1.90;;
17520;SDS011;8878;-33.370;-70.552;2023-04-03T01:38:45;2.42;;;1.50;;
17520;SDS011;8878;-33.370;-70.552;2023-04-03T01:41:14;5.03;;;1.50;;
17520;SDS011;8878;-33.370;-70.552;2023-04-03T01:43:43;2.00;;;1.70;;
17520;SDS011;8878;-33.370;-70.552;2023-04-03T01:46:13;5.40;;;2.10;;
17520;SDS011;8878;-33.370;-70.552;2023-04-03T01:48:44;4.15;;;1.95;;
17520;SDS011;8878;-33.370;-70.552;2023-04-03T01:51:14;3.15;;;1.42;;
17520;SDS011;8878;-33.370;-70.552;2023-04-03T01:53:43;2.38;;;1.75;;
17520;SDS011;8878;-33.370;-70.552;2023-04-03T01:56:12;2.28;;;2.10;;
17520;SDS011;8878;-33.370;-70.552;2023-04-03T01:58:42;4.07;;;1.90;;
17520;SDS011;8878;-33.370;-70.552;2023-04-03T02:01:23;2.83;;;1.52;;
17520;SDS011;8878;-33.370;-70.552;2023-04-03T02:04:14;2.53;;;1.40;;
17520;SDS011;8878;-33.370;-70.552;2023-04-03T02:06:45;4.40;;;1.65;;
17520;SDS011;8878;-33.370;-70.552;2023-04-03T02:09:20;4.60;;;1.67;;
17520;SDS011;8878;-33.370;-70.552;2023-04-03T02:11:56;1.88;;;1.77;;
17520;SDS011;8878;-33.370;-70.552;2023-04-03T02:14:34;2.60;;;1.60;;
17520;SDS011;8878;-33.370;-70.552;2023-04-03T02:17:06;3.03;;;1.92;;
17520;SDS011;8878;-33.370;-70.552;2023-04-03T02:20:00;12.00;;;2.03;;
17520;SDS011;8878;-33.370;-70.552;2023-04-03T02:22:46;3.03;;;1.90;;
17520;SDS011;8878;-33.370;-70.552;2023-04-03T02:25:19;3.28;;;1.75;;
17520;SDS011;8878;-33.370;-70.552;2023-04-03T02:28:01;2.90;;;1.33;;
17520;SDS011;8878;-33.370;-70.552;2023-04-03T02:30:44;3.80;;;1.65;;
17520;SDS011;8878;-33.370;-70.552;2023-04-03T02:33:23;3.95;;;1.60;;
17520;SDS011;8878;-33.370;-70.552;2023-04-03T02:35:57;2.22;;;1.70;;
17520;SDS011;8878;-33.370;-70.552;2023-04-03T02:38:40;6.10;;;2.08;;
17520;SDS011;8878;-33.370;-70.552;2023-04-03T02:41:18;3.97;;;1.52;;
17520;SDS011;8878;-33.370;-70.552;2023-04-03T02:44:03;3.42;;;1.40;;
17520;SDS011;8878;-33.370;-70.552;2023-04-03T02:46:44;5.47;;;1.73;;
17520;SDS011;8878;-33.370;-70.552;2023-04-03T02:49:25;4.57;;;1.67;;
17520;SDS011;8878;-33.370;-70.552;2023-04-03T02:55:18;1.50;;;1.33;;
17520;SDS011;8878;-33.370;-70.552;2023-04-03T02:57:58;3.72;;;1.38;;
17520;SDS011;8878;-33.370;-70.552;2023-04-03T03:00:36;2.03;;;1.50;;
17520;SDS011;8878;-33.370;-70.552;2023-04-03T03:03:19;1.77;;;1.30;;
17520;SDS011;8878;-33.370;-70.552;2023-04-03T03:06:02;3.40;;;1.63;;
17520;SDS011;8878;-33.370;-70.552;2023-04-03T03:08:58;3.53;;;1.38;;
17520;SDS011;8878;-33.370;-70.552;2023-04-03T03:11:39;2.42;;;1.08;;
17520;SDS011;8878;-33.370;-70.552;2023-04-03T03:14:17;3.65;;;1.20;;
17520;SDS011;8878;-33.370;-70.552;2023-04-03T03:16:51;1.25;;;1.15;;
17520;SDS011;8878;-33.370;-70.552;2023-04-03T03:19:28;1.23;;;1.08;;
17520;SDS011;8878;-33.370;-70.552;2023-04-03T03:22:09;2.72;;;1.20;;
17520;SDS011;8878;-33.370;-70.552;2023-04-03T03:24:53;3.05;;;0.90;;
17520;SDS011;8878;-33.370;-70.552;2023-04-03T03:27:31;1.52;;;1.00;;
17520;SDS011;8878;-33.370;-70.552;2023-04-03T03:30:11;3.42;;;1.20;;
17520;SDS011;8878;-33.370;-70.552;2023-04-03T03:32:43;5.82;;;1.20;;
17520;SDS011;8878;-33.370;-70.552;2023-04-03T03:38:26;2.05;;;0.95;;
17520;SDS011;8878;-33.370;-70.552;2023-04-03T03:41:09;1.13;;;1.05;;
17520;SDS011;8878;-33.370;-70.552;2023-04-03T03:43:52;3.88;;;1.23;;
17520;SDS011;8878;-33.370;-70.552;2023-04-03T03:46:33;3.15;;;1.13;;
17520;SDS011;8878;-33.370;-70.552;2023-04-03T03:49:21;0.90;;;0.90;;
17520;SDS011;8878;-33.370;-70.552;2023-04-03T03:51:55;5.07;;;1.30;;
17520;SDS011;8878;-33.370;-70.552;2023-04-03T03:54:36;1.63;;;1.20;;
17520;SDS011;8878;-33.370;-70.552;2023-04-03T03:57:18;2.25;;;1.50;;
17520;SDS011;8878;-33.370;-70.552;2023-04-03T03:59:55;1.92;;;1.02;;
17520;SDS011;8878;-33.370;-70.552;2023-04-03T04:02:45;3.35;;;1.27;;
17520;SDS011;8878;-33.370;-70.552;2023-04-03T04:05:20;1.17;;;0.95;;
17520;SDS011;8878;-33.370;-70.552;2023-04-03T04:08:03;5.97;;;1.40;;
17520;SDS011;8878;-33.370;-70.552;2023-04-03T04:10:47;1.17;;;1.08;;
17520;SDS011;8878;-33.370;-70.552;2023-04-03T04:13:30;2.85;;;1.35;;
17520;SDS011;8878;-33.370;-70.552;2023-04-03T04:16:00;2.25;;;1.35;;
17520;SDS011;8878;-33.370;-70.552;2023-04-03T04:18:30;5.35;;;1.20;;
17520;SDS011;8878;-33.370;-70.552;2023-04-03T04:21:09;3.50;;;1.70;;
17520;SDS011;8878;-33.370;-70.552;2023-04-03T04:23:43;3.17;;;1.23;;
17520;SDS011;8878;-33.370;-70.552;2023-04-03T04:26:16;1.60;;;1.08;;
17520;SDS011;8878;-33.370;-70.552;2023-04-03T04:29:02;9.60;;;1.40;;
17520;SDS011;8878;-33.370;-70.552;2023-04-03T04:31:50;9.52;;;1.20;;
17520;SDS011;8878;-33.370;-70.552;2023-04-03T04:34:27;3.20;;;1.00;;
17520;SDS011;8878;-33.370;-70.552;2023-04-03T04:37:03;1.95;;;1.27;;
17520;SDS011;8878;-33.370;-70.552;2023-04-03T04:39:48;2.38;;;1.58;;
17520;SDS011;8878;-33.370;-70.552;2023-04-03T04:42:21;1.50;;;1.33;;
17520;SDS011;8878;-33.370;-70.552;2023-04-03T04:45:04;2.13;;;1.58;;
17520;SDS011;8878;-33.370;-70.552;2023-04-03T04:47:45;7.60;;;1.27;;
17520;SDS011;8878;-33.370;-70.552;2023-04-03T04:50:35;4.68;;;1.08;;
17520;SDS011;8878;-33.370;-70.552;2023-04-03T04:53:13;2.03;;;1.67;;
17520;SDS011;8878;-33.370;-70.552;2023-04-03T04:55:43;4.43;;;1.50;;
17520;SDS011;8878;-33.370;-70.552;2023-04-03T04:58:12;1.65;;;1.45;;
17520;SDS011;8878;-33.370;-70.552;2023-04-03T05:00:43;5.13;;;1.02;;
17520;SDS011;8878;-33.370;-70.552;2023-04-03T05:03:13;5.10;;;1.30;;
17520;SDS011;8878;-33.370;-70.552;2023-04-03T05:05:42;1.55;;;1.40;;
17520;SDS011;8878;-33.370;-70.552;2023-04-03T05:08:12;1.80;;;0.95;;
17520;SDS011;8878;-33.370;-70.552;2023-04-03T05:10:41;1.23;;;1.08;;
17520;SDS011;8878;-33.370;-70.552;2023-04-03T05:13:12;2.80;;;1.13;;
17520;SDS011;8878;-33.370;-70.552;2023-04-03T05:15:43;1.85;;;1.52;;
17520;SDS011;8878;-33.370;-70.552;2023-04-03T05:18:12;6.07;;;1.20;;
17520;SDS011;8878;-33.370;-70.552;2023-04-03T05:20:42;8.00;;;1.30;;
17520;SDS011;8878;-33.370;-70.552;2023-04-03T05:23:11;2.05;;;0.82;;
17520;SDS011;8878;-33.370;-70.552;2023-04-03T05:25:40;2.50;;;1.20;;
17520;SDS011;8878;-33.370;-70.552;2023-04-03T05:28:11;1.35;;;1.25;;
17520;SDS011;8878;-33.370;-70.552;2023-04-03T05:30:40;1.98;;;1.25;;
17520;SDS011;8878;-33.370;-70.552;2023-04-03T05:33:12;3.03;;;1.20;;
17520;SDS011;8878;-33.370;-70.552;2023-04-03T05:35:41;0.80;;;0.80;;
17520;SDS011;8878;-33.370;-70.552;2023-04-03T05:38:11;4.35;;;1.20;;
17520;SDS011;8878;-33.370;-70.552;2023-04-03T05:40:40;2.00;;;1.10;;
17520;SDS011;8878;-33.370;-70.552;2023-04-03T05:43:11;0.98;;;0.98;;
17520;SDS011;8878;-33.370;-70.552;2023-04-03T05:45:40;3.08;;;1.20;;
17520;SDS011;8878;-33.370;-70.552;2023-04-03T05:48:12;1.30;;;1.13;;
17520;SDS011;8878;-33.370;-70.552;2023-04-03T05:50:41;4.65;;;1.30;;
17520;SDS011;8878;-33.370;-70.552;2023-04-03T05:53:12;1.80;;;1.02;;
17520;SDS011;8878;-33.370;-70.552;2023-04-03T05:55:45;4.50;;;1.38;;
17520;SDS011;8878;-33.370;-70.552;2023-04-03T05:58:15;3.00;;;1.25;;
17520;SDS011;8878;-33.370;-70.552;2023-04-03T06:00:44;2.70;;;0.88;;
17520;SDS011;8878;-33.370;-70.552;2023-04-03T06:03:16;5.88;;;1.25;;
17520;SDS011;8878;-33.370;-70.552;2023-04-03T06:05:45;2.95;;;1.25;;
17520;SDS011;8878;-33.370;-70.552;2023-04-03T06:08:14;1.05;;;0.93;;
17520;SDS011;8878;-33.370;-70.552;2023-04-03T06:10:43;3.90;;;1.00;;
17520;SDS011;8878;-33.370;-70.552;2023-04-03T06:13:13;0.80;;;0.80;;
17520;SDS011;8878;-33.370;-70.552;2023-04-03T06:15:43;1.95;;;1.02;;
17520;SDS011;8878;-33.370;-70.552;2023-04-03T06:18:12;2.13;;;1.10;;
17520;SDS011;8878;-33.370;-70.552;2023-04-03T06:20:43;3.55;;;1.13;;
17520;SDS011;8878;-33.370;-70.552;2023-04-03T06:23:13;1.17;;;1.08;;
17520;SDS011;8878;-33.370;-70.552;2023-04-03T06:25:42;10.07;;;1.17;;
17520;SDS011;8878;-33.370;-70.552;2023-04-03T06:28:12;1.48;;;0.75;;
17520;SDS011;8878;-33.370;-70.552;2023-04-03T06:30:42;1.33;;;0.80;;
17520;SDS011;8878;-33.370;-70.552;2023-04-03T06:33:11;0.90;;;0.90;;
17520;SDS011;8878;-33.370;-70.552;2023-04-03T06:35:42;5.22;;;1.00;;
17520;SDS011;8878;-33.370;-70.552;2023-04-03T06:38:11;2.88;;;1.00;;
17520;SDS011;8878;-33.370;-70.552;2023-04-03T06:40:41;1.98;;;1.05;;
17520;SDS011;8878;-33.370;-70.552;2023-04-03T06:43:10;2.15;;;1.25;;
17520;SDS011;8878;-33.370;-70.552;2023-04-03T06:45:39;1.10;;;0.90;;
17520;SDS011;8878;-33.370;-70.552;2023-04-03T06:48:08;3.08;;;1.55;;
17520;SDS011;8878;-33.370;-70.552;2023-04-03T06:50:37;0.88;;;0.88;;
17520;SDS011;8878;-33.370;-70.552;2023-04-03T06:53:10;1.42;;;1.33;;
17520;SDS011;8878;-33.370;-70.552;2023-04-03T06:55:40;5.97;;;1.27;;
17520;SDS011;8878;-33.370;-70.552;2023-04-03T06:58:09;1.48;;;0.90;;
17520;SDS011;8878;-33.370;-70.552;2023-04-03T07:00:39;2.30;;;1.30;;
17520;SDS011;8878;-33.370;-70.552;2023-04-03T07:03:08;1.50;;;1.15;;
17520;SDS011;8878;-33.370;-70.552;2023-04-03T07:05:38;1.35;;;1.08;;
17520;SDS011;8878;-33.370;-70.552;2023-04-03T07:08:12;1.80;;;0.90;;
17520;SDS011;8878;-33.370;-70.552;2023-04-03T07:10:41;0.98;;;0.95;;
17520;SDS011;8878;-33.370;-70.552;2023-04-03T07:13:10;4.95;;;1.50;;
17520;SDS011;8878;-33.370;-70.552;2023-04-03T07:15:40;2.10;;;1.03;;
17520;SDS011;8878;-33.370;-70.552;2023-04-03T07:18:10;1.88;;;1.13;;
17520;SDS011;8878;-33.370;-70.552;2023-04-03T07:20:39;0.85;;;0.85;;
17520;SDS011;8878;-33.370;-70.552;2023-04-03T07:23:08;1.35;;;1.05;;
17520;SDS011;8878;-33.370;-70.552;2023-04-03T07:25:42;4.90;;;1.13;;
17520;SDS011;8878;-33.370;-70.552;2023-04-03T07:28:11;1.13;;;1.00;;
17520;SDS011;8878;-33.370;-70.552;2023-04-03T07:30:44;4.97;;;1.30;;
17520;SDS011;8878;-33.370;-70.552;2023-04-03T07:33:14;2.50;;;1.17;;
17520;SDS011;8878;-33.370;-70.552;2023-04-03T07:35:44;4.75;;;1.30;;
17520;SDS011;8878;-33.370;-70.552;2023-04-03T07:38:15;4.13;;;1.43;;
17520;SDS011;8878;-33.370;-70.552;2023-04-03T07:40:45;1.57;;;1.20;;
17520;SDS011;8878;-33.370;-70.552;2023-04-03T07:43:15;3.03;;;1.02;;
17520;SDS011;8878;-33.370;-70.552;2023-04-03T07:45:46;2.13;;;1.27;;
17520;SDS011;8878;-33.370;-70.552;2023-04-03T07:48:16;2.90;;;1.27;;
17520;SDS011;8878;-33.370;-70.552;2023-04-03T07:50:46;0.90;;;0.90;;
17520;SDS011;8878;-33.370;-70.552;2023-04-03T07:53:17;1.25;;;0.77;;
17520;SDS011;8878;-33.370;-70.552;2023-04-03T07:55:48;2.50;;;1.27;;
17520;SDS011;8878;-33.370;-70.552;2023-04-03T07:58:21;1.37;;;1.13;;
17520;SDS011;8878;-33.370;-70.552;2023-04-03T08:00:50;4.15;;;1.27;;
17520;SDS011;8878;-33.370;-70.552;2023-04-03T08:03:20;0.75;;;0.75;;
17520;SDS011;8878;-33.370;-70.552;2023-04-03T08:05:50;1.27;;;1.10;;
17520;SDS011;8878;-33.370;-70.552;2023-04-03T08:08:22;6.18;;;1.02;;
17520;SDS011;8878;-33.370;-70.552;2023-04-03T08:10:52;4.10;;;1.55;;
17520;SDS011;8878;-33.370;-70.552;2023-04-03T08:13:22;0.90;;;0.90;;
17520;SDS011;8878;-33.370;-70.552;2023-04-03T08:15:51;3.50;;;1.33;;
17520;SDS011;8878;-33.370;-70.552;2023-04-03T08:18:21;2.13;;;1.00;;
17520;SDS011;8878;-33.370;-70.552;2023-04-03T08:20:52;3.40;;;1.35;;
17520;SDS011;8878;-33.370;-70.552;2023-04-03T08:23:23;4.93;;;1.57;;
17520;SDS011;8878;-33.370;-70.552;2023-04-03T08:25:52;1.85;;;0.93;;
17520;SDS011;8878;-33.370;-70.552;2023-04-03T08:28:21;2.17;;;0.80;;
17520;SDS011;8878;-33.370;-70.552;2023-04-03T08:30:52;1.48;;;0.90;;
17520;SDS011;8878;-33.370;-70.552;2023-04-03T08:33:21;1.20;;;0.60;;
17520;SDS011;8878;-33.370;-70.552;2023-04-03T08:35:51;6.95;;;1.38;;
17520;SDS011;8878;-33.370;-70.552;2023-04-03T08:38:21;0.90;;;0.90;;
17520;SDS011;8878;-33.370;-70.552;2023-04-03T08:40:59;0.88;;;0.63;;
17520;SDS011;8878;-33.370;-70.552;2023-04-03T08:43:35;1.37;;;0.93;;
17520;SDS011;8878;-33.370;-70.552;2023-04-03T08:46:14;2.37;;;1.10;;
17520;SDS011;8878;-33.370;-70.552;2023-04-03T08:48:44;1.67;;;1.07;;
17520;SDS011;8878;-33.370;-70.552;2023-04-03T08:51:14;1.37;;;1.27;;
17520;SDS011;8878;-33.370;-70.552;2023-04-03T08:53:49;1.23;;;1.03;;
17520;SDS011;8878;-33.370;-70.552;2023-04-03T08:56:24;1.57;;;1.20;;
17520;SDS011;8878;-33.370;-70.552;2023-04-03T08:58:55;7.90;;;1.20;;
17520;SDS011;8878;-33.370;-70.552;2023-04-03T09:01:27;1.40;;;1.30;;
17520;SDS011;8878;-33.370;-70.552;2023-04-03T09:04:05;1.92;;;1.02;;
17520;SDS011;8878;-33.370;-70.552;2023-04-03T09:06:39;6.47;;;1.10;;
17520;SDS011;8878;-33.370;-70.552;2023-04-03T09:09:20;1.50;;;1.10;;
17520;SDS011;8878;-33.370;-70.552;2023-04-03T09:12:00;3.77;;;1.20;;
17520;SDS011;8878;-33.370;-70.552;2023-04-03T09:14:38;1.27;;;0.80;;
17520;SDS011;8878;-33.370;-70.552;2023-04-03T09:17:13;1.03;;;1.03;;
17520;SDS011;8878;-33.370;-70.552;2023-04-03T09:19:51;1.40;;;1.00;;
17520;SDS011;8878;-33.370;-70.552;2023-04-03T09:22:25;1.10;;;1.00;;
17520;SDS011;8878;-33.370;-70.552;2023-04-03T09:24:59;1.83;;;1.10;;
17520;SDS011;8878;-33.370;-70.552;2023-04-03T09:27:31;2.80;;;1.30;;
17520;SDS011;8878;-33.370;-70.552;2023-04-03T09:30:01;1.75;;;0.98;;
17520;SDS011;8878;-33.370;-70.552;2023-04-03T09:32:34;15.13;;;1.20;;
17520;SDS011;8878;-33.370;-70.552;2023-04-03T09:35:04;3.40;;;0.83;;
17520;SDS011;8878;-33.370;-70.552;2023-04-03T09:37:47;2.33;;;1.07;;
17520;SDS011;8878;-33.370;-70.552;2023-04-03T09:40:30;1.30;;;1.08;;
17520;SDS011;8878;-33.370;-70.552;2023-04-03T09:45:49;1.43;;;1.00;;
17520;SDS011;8878;-33.370;-70.552;2023-04-03T09:48:20;1.50;;;1.00;;
17520;SDS011;8878;-33.370;-70.552;2023-04-03T09:50:57;3.83;;;1.17;;
17520;SDS011;8878;-33.370;-70.552;2023-04-03T09:53:33;1.63;;;1.27;;
17520;SDS011;8878;-33.370;-70.552;2023-04-03T09:56:18;2.93;;;1.10;;
17520;SDS011;8878;-33.370;-70.552;2023-04-03T09:58:50;2.50;;;0.90;;
17520;SDS011;8878;-33.370;-70.552;2023-04-03T10:01:31;1.60;;;1.10;;
17520;SDS011;8878;-33.370;-70.552;2023-04-03T10:04:06;1.10;;;1.00;;
17520;SDS011;8878;-33.370;-70.552;2023-04-03T10:06:38;0.97;;;0.90;;
17520;SDS011;8878;-33.370;-70.552;2023-04-03T10:09:17;3.77;;;0.90;;
17520;SDS011;8878;-33.370;-70.552;2023-04-03T10:12:01;1.03;;;1.00;;
17520;SDS011;8878;-33.370;-70.552;2023-04-03T10:14:33;3.70;;;1.03;;
17520;SDS011;8878;-33.370;-70.552;2023-04-03T10:17:09;1.93;;;1.17;;
17520;SDS011;8878;-33.370;-70.552;2023-04-03T10:19:47;1.33;;;0.97;;
17520;SDS011;8878;-33.370;-70.552;2023-04-03T10:22:23;2.93;;;1.23;;
17520;SDS011;8878;-33.370;-70.552;2023-04-03T10:25:07;1.60;;;1.40;;
17520;SDS011;8878;-33.370;-70.552;2023-04-03T10:27:47;1.83;;;0.90;;
17520;SDS011;8878;-33.370;-70.552;2023-04-03T10:30:27;1.97;;;1.20;;
17520;SDS011;8878;-33.370;-70.552;2023-04-03T10:36:02;1.07;;;1.00;;
17520;SDS011;8878;-33.370;-70.552;2023-04-03T10:38:43;1.70;;;1.00;;
17520;SDS011;8878;-33.370;-70.552;2023-04-03T10:41:24;2.47;;;1.17;;
17520;SDS011;8878;-33.370;-70.552;2023-04-03T10:44:03;0.90;;;0.90;;
17520;SDS011;8878;-33.370;-70.552;2023-04-03T10:46:43;1.90;;;1.00;;
17520;SDS011;8878;-33.370;-70.552;2023-04-03T10:49:19;2.07;;;1.10;;
17520;SDS011;8878;-33.370;-70.552;2023-04-03T10:51:59;3.20;;;1.50;;
17520;SDS011;8878;-33.370;-70.552;2023-04-03T10:54:35;2.03;;;0.87;;
17520;SDS011;8878;-33.370;-70.552;2023-04-03T10:57:08;5.80;;;0.80;;
17520;SDS011;8878;-33.370;-70.552;2023-04-03T10:59:41;0.80;;;0.80;;
17520;SDS011;8878;-33.370;-70.552;2023-04-03T11:02:14;2.50;;;1.00;;
17520;SDS011;8878;-33.370;-70.552;2023-04-03T11:04:51;1.67;;;0.70;;
17520;SDS011;8878;-33.370;-70.552;2023-04-03T11:07:23;1.50;;;0.73;;
17520;SDS011;8878;-33.370;-70.552;2023-04-03T11:09:57;1.93;;;1.20;;
17520;SDS011;8878;-33.370;-70.552;2023-04-03T11:12:33;4.43;;;1.10;;
17520;SDS011;8878;-33.370;-70.552;2023-04-03T11:15:11;1.23;;;0.87;;
17520;SDS011;8878;-33.370;-70.552;2023-04-03T11:17:43;1.87;;;0.83;;
17520;SDS011;8878;-33.370;-70.552;2023-04-03T11:20:20;0.70;;;0.70;;
17520;SDS011;8878;-33.370;-70.552;2023-04-03T11:22:54;0.97;;;0.93;;
17520;SDS011;8878;-33.370;-70.552;2023-04-03T11:25:29;2.83;;;1.20;;
17520;SDS011;8878;-33.370;-70.552;2023-04-03T11:28:01;2.87;;;1.07;;
17520;SDS011;8878;-33.370;-70.552;2023-04-03T11:30:36;1.23;;;0.93;;
17520;SDS011;8878;-33.370;-70.552;2023-04-03T11:33:17;0.90;;;0.90;;
17520;SDS011;8878;-33.370;-70.552;2023-04-03T11:36:06;2.70;;;1.10;;
17520;SDS011;8878;-33.370;-70.552;2023-04-03T11:38:38;6.43;;;1.13;;
17520;SDS011;8878;-33.370;-70.552;2023-04-03T11:41:25;4.43;;;1.57;;
17520;SDS011;8878;-33.370;-70.552;2023-04-03T11:43:57;0.80;;;0.80;;
17520;SDS011;8878;-33.370;-70.552;2023-04-03T11:55:44;1.10;;;1.03;;
17520;SDS011;8878;-33.370;-70.552;2023-04-03T11:58:21;1.33;;;0.90;;
17520;SDS011;8878;-33.370;-70.552;2023-04-03T12:00:54;2.58;;;1.25;;
17520;SDS011;8878;-33.370;-70.552;2023-04-03T12:03:55;2.87;;;1.00;;
17520;SDS011;8878;-33.370;-70.552;2023-04-03T12:12:37;2.10;;;1.45;;
17520;SDS011;8878;-33.370;-70.552;2023-04-03T12:15:21;7.13;;;1.30;;
17520;SDS011;8878;-33.370;-70.552;2023-04-03T12:24:27;2.65;;;1.13;;
17520;SDS011;8878;-33.370;-70.552;2023-04-03T12:30:05;3.08;;;1.50;;
17520;SDS011;8878;-33.370;-70.552;2023-04-03T12:32:58;0.88;;;0.88;;
17520;SDS011;8878;-33.370;-70.552;2023-04-03T12:35:47;1.40;;;0.80;;
17520;SDS011;8878;-33.370;-70.552;2023-04-03T12:38:33;1.58;;;1.08;;
17520;SDS011;8878;-33.370;-70.552;2023-04-03T12:41:27;3.42;;;1.25;;
17520;SDS011;8878;-33.370;-70.552;2023-04-03T12:44:18;1.02;;;0.90;;
17520;SDS011;8878;-33.370;-70.552;2023-04-03T12:46:55;2.45;;;1.10;;
17520;SDS011;8878;-33.370;-70.552;2023-04-03T12:49:33;2.58;;;1.35;;
17520;SDS011;8878;-33.370;-70.552;2023-04-03T12:52:12;0.73;;;0.70;;
17520;SDS011;8878;-33.370;-70.552;2023-04-03T12:54:48;11.00;;;2.38;;
17520;SDS011;8878;-33.370;-70.552;2023-04-03T12:57:19;15.05;;;3.60;;
17520;SDS011;8878;-33.370;-70.552;2023-04-03T12:59:52;13.05;;;3.72;;
17520;SDS011;8878;-33.370;-70.552;2023-04-03T13:02:23;10.95;;;2.53;;
17520;SDS011;8878;-33.370;-70.552;2023-04-03T13:04:55;5.28;;;2.38;;
17520;SDS011;8878;-33.370;-70.552;2023-04-03T13:07:28;6.63;;;1.85;;
17520;SDS011;8878;-33.370;-70.552;2023-04-03T13:10:02;9.15;;;1.85;;
17520;SDS011;8878;-33.370;-70.552;2023-04-03T13:12:45;4.15;;;1.98;;
17520;SDS011;8878;-33.370;-70.552;2023-04-03T13:15:17;4.22;;;1.48;;
17520;SDS011;8878;-33.370;-70.552;2023-04-03T13:17:48;9.48;;;2.53;;
17520;SDS011;8878;-33.370;-70.552;2023-04-03T13:20:21;9.25;;;3.45;;
17520;SDS011;8878;-33.370;-70.552;2023-04-03T13:22:55;4.18;;;1.67;;
17520;SDS011;8878;-33.370;-70.552;2023-04-03T13:25:27;5.57;;;1.77;;
17520;SDS011;8878;-33.370;-70.552;2023-04-03T13:27:59;10.73;;;3.22;;
17520;SDS011;8878;-33.370;-70.552;2023-04-03T13:30:32;11.13;;;2.83;;
17520;SDS011;8878;-33.370;-70.552;2023-04-03T13:33:05;5.30;;;1.83;;
17520;SDS011;8878;-33.370;-70.552;2023-04-03T13:35:54;17.02;;;3.38;;
17520;SDS011;8878;-33.370;-70.552;2023-04-03T13:38:27;8.05;;;2.40;;
17520;SDS011;8878;-33.370;-70.552;2023-04-03T13:41:00;12.55;;;4.43;;
17520;SDS011;8878;-33.370;-70.552;2023-04-03T13:43:32;11.82;;;2.30;;
17520;SDS011;8878;-33.370;-70.552;2023-04-03T13:46:05;4.40;;;2.00;;
17520;SDS011;8878;-33.370;-70.552;2023-04-03T13:48:52;1.50;;;1.40;;
17520;SDS011;8878;-33.370;-70.552;2023-04-03T13:51:23;4.80;;;0.88;;
17520;SDS011;8878;-33.370;-70.552;2023-04-03T13:53:55;1.58;;;1.10;;
17520;SDS011;8878;-33.370;-70.552;2023-04-03T13:56:27;1.70;;;1.60;;
17520;SDS011;8878;-33.370;-70.552;2023-04-03T13:59:05;1.48;;;1.38;;
17520;SDS011;8878;-33.370;-70.552;2023-04-03T14:01:50;6.47;;;1.48;;
17520;SDS011;8878;-33.370;-70.552;2023-04-03T14:04:21;1.13;;;1.08;;
17520;SDS011;8878;-33.370;-70.552;2023-04-03T14:06:53;2.92;;;1.55;;
17520;SDS011;8878;-33.370;-70.552;2023-04-03T14:09:26;6.07;;;1.50;;
17520;SDS011;8878;-33.370;-70.552;2023-04-03T14:11:57;14.75;;;3.25;;
17520;SDS011;8878;-33.370;-70.552;2023-04-03T14:14:31;20.85;;;4.88;;
17520;SDS011;8878;-33.370;-70.552;2023-04-03T14:17:03;4.50;;;1.75;;
17520;SDS011;8878;-33.370;-70.552;2023-04-03T14:19:42;2.10;;;1.00;;
17520;SDS011;8878;-33.370;-70.552;2023-04-03T14:22:14;1.42;;;1.13;;
17520;SDS011;8878;-33.370;-70.552;2023-04-03T14:24:46;2.80;;;1.90;;
17520;SDS011;8878;-33.370;-70.552;2023-04-03T14:27:18;11.32;;;1.60;;
17520;SDS011;8878;-33.370;-70.552;2023-04-03T14:29:48;2.38;;;1.30;;
17520;SDS011;8878;-33.370;-70.552;2023-04-03T14:32:19;1.92;;;1.20;;
17520;SDS011;8878;-33.370;-70.552;2023-04-03T14:34:49;4.07;;;1.60;;
17520;SDS011;8878;-33.370;-70.552;2023-04-03T14:37:20;1.08;;;1.00;;
17520;SDS011;8878;-33.370;-70.552;2023-04-03T14:39:52;3.10;;;1.30;;
17520;SDS011;8878;-33.370;-70.552;2023-04-03T14:42:24;3.33;;;2.00;;
17520;SDS011;8878;-33.370;-70.552;2023-04-03T14:44:55;6.10;;;2.03;;
17520;SDS011;8878;-33.370;-70.552;2023-04-03T14:47:25;1.48;;;1.02;;
17520;SDS011;8878;-33.370;-70.552;2023-04-03T14:49:57;3.38;;;1.13;;
17520;SDS011;8878;-33.370;-70.552;2023-04-03T14:52:27;14.93;;;3.35;;
17520;SDS011;8878;-33.370;-70.552;2023-04-03T14:55:00;3.25;;;1.80;;
17520;SDS011;8878;-33.370;-70.552;2023-04-03T14:57:31;5.47;;;1.42;;
17520;SDS011;8878;-33.370;-70.552;2023-04-03T15:00:02;1.23;;;1.10;;
17520;SDS011;8878;-33.370;-70.552;2023-04-03T15:02:33;4.35;;;1.25;;
17520;SDS011;8878;-33.370;-70.552;2023-04-03T15:05:03;4.07;;;1.48;;
17520;SDS011;8878;-33.370;-70.552;2023-04-03T15:07:35;4.22;;;1.77;;
17520;SDS011;8878;-33.370;-70.552;2023-04-03T15:10:14;6.55;;;1.88;;
17520;SDS011;8878;-33.370;-70.552;2023-04-03T15:12:45;2.72;;;1.52;;
17520;SDS011;8878;-33.370;-70.552;2023-04-03T15:15:16;3.35;;;1.60;;
17520;SDS011;8878;-33.370;-70.552;2023-04-03T15:17:47;1.42;;;1.20;;
17520;SDS011;8878;-33.370;-70.552;2023-04-03T15:20:21;2.70;;;1.55;;
17520;SDS011;8878;-33.370;-70.552;2023-04-03T15:22:52;6.20;;;1.67;;
17520;SDS011;8878;-33.370;-70.552;2023-04-03T15:25:24;6.70;;;2.45;;
17520;SDS011;8878;-33.370;-70.552;2023-04-03T15:27:54;2.53;;;1.55;;
17520;SDS011;8878;-33.370;-70.552;2023-04-03T15:30:23;2.28;;;1.42;;
17520;SDS011;8878;-33.370;-70.552;2023-04-03T15:32:54;3.92;;;1.73;;
17520;SDS011;8878;-33.370;-70.552;2023-04-03T15:35:23;10.80;;;2.53;;
17520;SDS011;8878;-33.370;-70.552;2023-04-03T15:37:53;6.10;;;2.38;;
17520;SDS011;8878;-33.370;-70.552;2023-04-03T15:40:24;8.98;;;2.08;;